createdAt,value
2019-03-24T00:01:41.412Z,59.30
2019-03-24T00:04:08.060Z,59.50
2019-03-24T00:09:06.048Z,59.20
2019-03-24T00:11:34.256Z,59.10
2019-03-24T00:14:02.330Z,58.80
2019-03-24T00:16:30.382Z,58.90
2019-03-24T00:18:58.524Z,58.70
2019-03-24T00:21:26.644Z,59.00
2019-03-24T00:23:54.738Z,59.00
2019-03-24T00:26:23.548Z,59.00
2019-03-24T00:28:51.745Z,58.80
2019-03-24T00:31:19.864Z,58.40
2019-03-24T00:33:47.989Z,57.70
2019-03-24T00:36:16.017Z,57.20
2019-03-24T00:38:44.293Z,56.70
2019-03-24T00:41:12.510Z,57.00
2019-03-24T00:43:40.683Z,56.60
2019-03-24T00:46:08.856Z,56.60
2019-03-24T00:48:36.977Z,56.60
2019-03-24T00:51:05.087Z,56.30
2019-03-24T00:53:33.157Z,56.90
2019-03-24T00:56:01.208Z,57.60
2019-03-24T00:58:29.350Z,57.00
2019-03-24T01:00:57.759Z,57.00
2019-03-24T01:03:25.853Z,57.00
2019-03-24T01:05:53.932Z,57.60
2019-03-24T01:08:22.950Z,57.10
2019-03-24T01:10:50.983Z,57.30
2019-03-24T01:13:19.400Z,57.20
2019-03-24T01:15:48.231Z,57.40
2019-03-24T01:18:16.436Z,57.40
2019-03-24T01:20:44.470Z,57.50
2019-03-24T01:23:13.728Z,57.50
2019-03-24T01:25:41.791Z,57.40
2019-03-24T01:28:09.973Z,57.50
2019-03-24T01:30:37.970Z,57.60
2019-03-24T01:33:07.021Z,57.60
2019-03-24T01:35:36.116Z,57.60
2019-03-24T01:38:04.304Z,57.60
2019-03-24T01:40:32.431Z,57.70
2019-03-24T01:43:00.585Z,57.70
2019-03-24T01:45:28.703Z,57.60
2019-03-24T01:47:56.728Z,57.60
2019-03-24T01:50:24.734Z,57.50
2019-03-24T01:52:52.956Z,58.00
2019-03-24T01:55:20.984Z,57.50
2019-03-24T01:57:49.009Z,57.50
2019-03-24T02:00:17.233Z,57.50
2019-03-24T02:02:45.296Z,57.50
2019-03-24T02:05:13.287Z,57.50
2019-03-24T02:07:41.368Z,57.60
2019-03-24T02:10:09.700Z,57.70
2019-03-24T02:12:37.915Z,57.70
2019-03-24T02:15:06.350Z,58.00
2019-03-24T02:17:34.364Z,57.80
2019-03-24T02:20:02.712Z,58.10
2019-03-24T02:22:30.847Z,58.20
2019-03-24T02:24:58.941Z,58.20
2019-03-24T02:27:27.031Z,58.50
2019-03-24T02:29:55.095Z,58.40
2019-03-24T02:32:23.173Z,58.40
2019-03-24T02:34:51.330Z,58.40
2019-03-24T02:37:20.526Z,58.40
2019-03-24T02:39:48.617Z,58.20
2019-03-24T02:42:16.620Z,58.40
2019-03-24T02:44:45.800Z,58.40
2019-03-24T02:47:13.935Z,58.30
2019-03-24T02:49:42.073Z,58.40
2019-03-24T02:52:10.267Z,58.40
2019-03-24T02:54:38.431Z,58.50
2019-03-24T02:57:06.546Z,58.60
2019-03-24T02:59:34.712Z,58.60
2019-03-24T03:02:03.126Z,58.60
2019-03-24T03:04:31.188Z,58.60
2019-03-24T03:06:59.195Z,58.50
2019-03-24T03:09:27.219Z,58.60
2019-03-24T03:11:55.351Z,58.60
2019-03-24T03:14:23.466Z,58.70
2019-03-24T03:16:51.607Z,58.80
2019-03-24T03:19:19.688Z,58.80
2019-03-24T03:21:47.808Z,58.80
2019-03-24T03:24:15.891Z,58.70
2019-03-24T03:26:43.942Z,58.90
2019-03-24T03:29:12.029Z,59.00
2019-03-24T03:31:40.145Z,59.00
2019-03-24T03:34:08.254Z,59.20
2019-03-24T03:36:36.426Z,59.50
2019-03-24T03:39:06.452Z,59.80
2019-03-24T03:41:46.477Z,59.90
2019-03-24T03:44:14.742Z,59.80
2019-03-24T03:46:52.405Z,60.20
2019-03-24T03:49:12.942Z,60.30
2019-03-24T03:51:40.943Z,59.70
2019-03-24T03:54:08.950Z,60.10
2019-03-24T03:56:37.006Z,60.30
2019-03-24T03:59:05.243Z,60.10
2019-03-24T04:01:35.145Z,60.40
2019-03-24T04:04:04.090Z,61.00
2019-03-24T04:06:32.170Z,61.20
2019-03-24T04:09:00.148Z,61.50
2019-03-24T04:11:28.281Z,62.00
2019-03-24T04:13:56.412Z,62.40
2019-03-24T04:16:24.513Z,62.70
2019-03-24T04:18:52.606Z,62.30
2019-03-24T04:21:20.744Z,61.80
2019-03-24T04:23:48.851Z,61.70
2019-03-24T04:26:16.995Z,61.60
2019-03-24T04:28:45.031Z,61.40
2019-03-24T04:31:13.041Z,61.60
2019-03-24T04:33:41.211Z,61.90
2019-03-24T04:36:09.245Z,62.00
2019-03-24T04:38:48.993Z,62.10
2019-03-24T04:41:17.141Z,63.00
2019-03-24T04:43:45.306Z,63.10
2019-03-24T04:46:13.417Z,62.80
2019-03-24T04:48:41.522Z,62.80
2019-03-24T04:51:09.667Z,62.60
2019-03-24T04:53:37.779Z,62.80
2019-03-24T04:56:05.903Z,62.50
2019-03-24T04:58:34.051Z,62.30
2019-03-24T05:01:02.210Z,61.90
2019-03-24T05:03:30.331Z,62.30
2019-03-24T05:05:58.430Z,62.40
2019-03-24T05:08:45.758Z,63.00
2019-03-24T05:11:14.025Z,63.50
2019-03-24T05:13:42.087Z,63.50
2019-03-24T05:16:10.063Z,63.80
2019-03-24T05:18:38.084Z,63.90
2019-03-24T05:21:06.128Z,64.20
2019-03-24T05:23:34.253Z,64.00
2019-03-24T05:26:02.722Z,63.70
2019-03-24T05:28:30.698Z,63.40
2019-03-24T05:30:58.805Z,63.40
2019-03-24T05:33:26.809Z,63.50
2019-03-24T05:35:54.883Z,63.40
2019-03-24T05:38:22.934Z,63.70
2019-03-24T05:40:50.966Z,64.10
2019-03-24T05:43:19.071Z,64.60
2019-03-24T05:45:47.080Z,64.90
2019-03-24T05:48:15.209Z,65.30
2019-03-24T05:50:43.271Z,65.90
2019-03-24T05:53:11.271Z,66.50
2019-03-24T05:55:39.417Z,66.30
2019-03-24T05:58:07.635Z,66.10
2019-03-24T06:00:35.766Z,66.00
2019-03-24T06:03:03.731Z,66.00
2019-03-24T06:05:31.822Z,65.70
2019-03-24T06:07:59.887Z,65.70
2019-03-24T06:10:28.083Z,65.70
2019-03-24T06:12:56.182Z,65.50
2019-03-24T06:15:24.273Z,65.50
2019-03-24T06:17:52.282Z,65.40
2019-03-24T06:20:20.348Z,65.30
2019-03-24T06:22:48.391Z,65.20
2019-03-24T06:25:16.458Z,65.00
2019-03-24T06:27:44.608Z,64.70
2019-03-24T06:30:12.747Z,64.80
2019-03-24T06:32:40.835Z,64.60
2019-03-24T06:35:08.955Z,64.70
2019-03-24T06:37:37.123Z,64.80
2019-03-24T06:40:05.579Z,65.00
2019-03-24T06:42:33.487Z,64.90
2019-03-24T06:45:02.514Z,64.80
2019-03-24T06:47:30.486Z,64.70
2019-03-24T06:49:58.453Z,64.70
2019-03-24T06:52:26.520Z,64.70
2019-03-24T06:54:54.508Z,64.90
2019-03-24T06:57:22.472Z,64.90
2019-03-24T06:59:50.333Z,65.10
2019-03-24T07:02:18.271Z,65.10
2019-03-24T07:04:46.265Z,65.00
2019-03-24T07:07:14.380Z,65.30
2019-03-24T07:09:42.454Z,65.10
2019-03-24T07:12:10.458Z,65.10
2019-03-24T07:14:38.367Z,64.70
2019-03-24T07:17:06.247Z,65.20
2019-03-24T07:19:34.180Z,65.00
2019-03-24T07:22:02.153Z,65.10
2019-03-24T07:24:29.981Z,65.50
2019-03-24T07:26:58.076Z,65.20
2019-03-24T07:29:26.091Z,65.10
2019-03-24T07:31:54.049Z,64.90
2019-03-24T07:34:22.110Z,65.30
2019-03-24T07:36:49.992Z,65.50
2019-03-24T07:39:17.900Z,66.20
2019-03-24T07:41:45.858Z,66.80
2019-03-24T07:44:13.806Z,66.60
2019-03-24T07:46:41.863Z,66.30
2019-03-24T07:49:09.730Z,66.50
2019-03-24T07:51:37.804Z,67.10
2019-03-24T07:54:05.676Z,66.30
2019-03-24T07:56:33.471Z,66.80
2019-03-24T07:59:01.336Z,66.80
2019-03-24T08:01:29.274Z,66.60
2019-03-24T08:03:57.173Z,66.40
2019-03-24T08:06:25.133Z,67.60
2019-03-24T08:08:53.068Z,68.40
2019-03-24T08:11:21.013Z,68.40
2019-03-24T08:13:53.619Z,68.90
2019-03-24T08:16:18.753Z,67.40
2019-03-24T08:18:46.596Z,67.20
2019-03-24T08:21:14.443Z,67.90
2019-03-24T08:23:42.286Z,67.30
2019-03-24T08:26:10.296Z,67.50
2019-03-24T08:28:38.230Z,67.00
2019-03-24T08:31:18.394Z,66.80
2019-03-24T08:33:46.390Z,66.60
2019-03-24T08:36:15.740Z,66.70
2019-03-24T08:38:43.796Z,65.90
2019-03-24T08:41:12.746Z,65.80
2019-03-24T08:43:40.639Z,65.90
2019-03-24T08:46:08.692Z,66.20
2019-03-24T08:48:40.920Z,66.40
2019-03-24T08:51:06.293Z,66.70
2019-03-24T08:53:34.324Z,66.40
2019-03-24T08:56:02.560Z,66.40
2019-03-24T08:58:30.614Z,66.00
2019-03-24T09:00:58.626Z,66.20
2019-03-24T09:03:29.077Z,66.30
2019-03-24T09:05:57.204Z,66.40
2019-03-24T09:08:25.184Z,65.80
2019-03-24T09:10:53.362Z,65.80
2019-03-24T09:13:21.417Z,66.10
2019-03-24T09:15:49.359Z,65.80
2019-03-24T09:18:17.280Z,65.90
2019-03-24T09:20:45.143Z,66.00
2019-03-24T09:23:13.124Z,66.40
2019-03-24T09:25:41.028Z,66.70
2019-03-24T09:28:09.296Z,66.90
2019-03-24T09:30:38.022Z,66.80
2019-03-24T09:33:06.325Z,68.30
2019-03-24T09:35:34.279Z,68.60
2019-03-24T09:38:02.330Z,68.80
2019-03-24T09:40:31.277Z,67.80
2019-03-24T09:43:00.853Z,68.00
2019-03-24T09:45:29.455Z,68.50
2019-03-24T09:47:57.771Z,67.70
2019-03-24T09:50:25.573Z,67.80
2019-03-24T09:52:53.447Z,68.00
2019-03-24T09:55:21.286Z,67.60
2019-03-24T09:57:49.262Z,66.90
2019-03-24T10:00:17.131Z,67.70
2019-03-24T10:02:45.059Z,67.50
2019-03-24T10:05:13.080Z,67.30
2019-03-24T10:07:41.032Z,66.80
2019-03-24T10:10:20.641Z,67.10
2019-03-24T10:12:48.635Z,66.80
2019-03-24T10:15:16.489Z,67.30
2019-03-24T10:17:44.566Z,66.10
2019-03-24T10:20:12.626Z,65.50
2019-03-24T10:22:40.565Z,65.20
2019-03-24T10:25:08.571Z,65.40
2019-03-24T10:27:36.533Z,65.00
2019-03-24T10:30:04.649Z,64.40
2019-03-24T10:32:32.569Z,65.60
2019-03-24T10:35:00.628Z,64.60
2019-03-24T10:37:29.669Z,64.60
2019-03-24T10:39:57.612Z,65.10
2019-03-24T10:42:25.478Z,65.00
2019-03-24T10:44:53.279Z,65.10
2019-03-24T10:47:21.126Z,65.10
2019-03-24T10:49:49.159Z,65.20
2019-03-24T10:52:17.119Z,65.90
2019-03-24T10:54:45.105Z,64.80
2019-03-24T10:57:13.160Z,63.50
2019-03-24T10:59:41.121Z,63.00
2019-03-24T11:02:08.942Z,63.80
2019-03-24T11:04:36.925Z,63.10
2019-03-24T11:07:04.966Z,62.70
2019-03-24T11:09:32.916Z,62.30
2019-03-24T11:12:01.901Z,62.20
2019-03-24T11:14:29.861Z,62.50
2019-03-24T11:16:57.866Z,62.30
2019-03-24T11:19:35.338Z,63.20
2019-03-24T11:21:55.650Z,61.40
2019-03-24T11:24:23.580Z,61.70
2019-03-24T11:26:51.530Z,58.60
2019-03-24T11:29:19.382Z,58.10
2019-03-24T11:31:59.390Z,57.10
2019-03-24T11:34:27.436Z,56.20
2019-03-24T11:36:55.363Z,54.20
2019-03-24T11:39:23.241Z,53.70
2019-03-24T11:41:51.156Z,54.20
2019-03-24T11:44:19.100Z,53.60
2019-03-24T11:46:47.115Z,53.00
2019-03-24T11:49:18.295Z,53.10
2019-03-24T11:51:46.296Z,53.00
2019-03-24T11:54:14.217Z,51.10
2019-03-24T11:56:42.072Z,50.40
2019-03-24T11:59:10.009Z,50.20
2019-03-24T12:01:38.634Z,49.80
2019-03-24T12:04:06.674Z,50.60
2019-03-24T12:06:34.679Z,50.60
2019-03-24T12:09:04.325Z,50.80
2019-03-24T12:11:32.406Z,50.30
2019-03-24T12:14:00.338Z,51.40
2019-03-24T12:16:28.258Z,51.10
2019-03-24T12:18:56.204Z,51.50
2019-03-24T12:21:24.218Z,51.80
2019-03-24T12:23:52.243Z,53.60
2019-03-24T12:26:20.293Z,53.20
2019-03-24T12:28:48.269Z,52.30
2019-03-24T12:31:16.231Z,52.30
2019-03-24T12:33:44.156Z,52.70
2019-03-24T12:36:12.001Z,52.60
2019-03-24T12:38:39.927Z,53.20
2019-03-24T12:41:10.946Z,52.80
2019-03-24T12:43:38.990Z,52.30
2019-03-24T12:46:07.194Z,52.10
2019-03-24T12:48:35.253Z,52.50
2019-03-24T12:51:03.514Z,52.60
2019-03-24T12:53:31.577Z,53.40
2019-03-24T12:55:59.552Z,53.80
2019-03-24T12:58:27.563Z,53.30
2019-03-24T13:00:55.669Z,53.50
2019-03-24T13:03:23.704Z,53.20
2019-03-24T13:05:51.670Z,53.20
2019-03-24T13:08:19.683Z,54.00
2019-03-24T13:10:47.741Z,53.40
2019-03-24T13:13:17.532Z,54.00
2019-03-24T13:15:45.544Z,54.30
2019-03-24T13:18:14.624Z,53.90
2019-03-24T13:20:43.792Z,54.10
2019-03-24T13:23:11.704Z,54.50
2019-03-24T13:25:39.681Z,53.80
2019-03-24T13:28:07.740Z,53.50
2019-03-24T13:30:35.682Z,53.60
2019-03-24T13:33:03.713Z,53.10
2019-03-24T13:35:31.633Z,53.30
2019-03-24T13:37:59.554Z,53.20
2019-03-24T13:40:27.549Z,53.20
2019-03-24T13:42:55.708Z,54.10
2019-03-24T13:45:23.753Z,53.30
2019-03-24T13:47:51.665Z,53.20
2019-03-24T13:50:30.756Z,53.10
2019-03-24T13:52:49.530Z,52.60
2019-03-24T13:55:17.587Z,53.10
2019-03-24T13:57:45.582Z,53.10
2019-03-24T14:00:15.447Z,52.70
2019-03-24T14:02:43.452Z,52.40
2019-03-24T14:05:30.767Z,52.70
2019-03-24T14:07:58.841Z,52.80
2019-03-24T14:10:26.743Z,52.60
2019-03-24T14:12:54.685Z,52.10
2019-03-24T14:15:22.545Z,50.30
2019-03-24T14:17:50.663Z,50.20
2019-03-24T14:20:18.512Z,49.40
2019-03-24T14:22:46.583Z,48.10
2019-03-24T14:25:14.598Z,48.40
2019-03-24T14:27:42.620Z,48.20
2019-03-24T14:30:11.169Z,48.50
2019-03-24T14:32:39.068Z,49.30
2019-03-24T14:35:07.073Z,48.40
2019-03-24T14:37:35.065Z,49.30
2019-03-24T14:40:03.715Z,49.70
2019-03-24T14:42:32.891Z,49.90
2019-03-24T14:45:00.842Z,50.00
2019-03-24T14:47:28.840Z,49.40
2019-03-24T14:49:56.863Z,49.90
2019-03-24T14:52:24.835Z,49.20
2019-03-24T14:54:52.862Z,48.70
2019-03-24T14:57:20.751Z,48.70
2019-03-24T14:59:48.752Z,47.90
2019-03-24T15:02:17.762Z,47.80
2019-03-24T15:04:45.721Z,47.90
2019-03-24T15:07:13.878Z,47.60
2019-03-24T15:09:41.881Z,46.70
2019-03-24T15:12:09.896Z,46.80
2019-03-24T15:14:37.872Z,46.40
2019-03-24T15:17:05.788Z,46.40
2019-03-24T15:19:33.778Z,45.80
2019-03-24T15:22:01.726Z,45.50
2019-03-24T15:24:30.798Z,45.80
2019-03-24T15:26:58.793Z,46.40
2019-03-24T15:29:26.746Z,45.90
2019-03-24T15:31:54.787Z,46.20
2019-03-24T15:34:22.813Z,46.70
2019-03-24T15:36:50.900Z,46.50
2019-03-24T15:39:18.824Z,47.00
2019-03-24T15:41:46.842Z,47.60
2019-03-24T15:44:14.792Z,47.30
2019-03-24T15:46:43.854Z,48.40
2019-03-24T15:49:11.886Z,48.70
2019-03-24T15:51:39.860Z,49.00
2019-03-24T15:54:07.787Z,48.00
2019-03-24T15:56:35.788Z,49.70
2019-03-24T15:59:03.742Z,49.00
2019-03-24T16:01:31.596Z,48.00
2019-03-24T16:03:59.588Z,47.10
2019-03-24T16:06:27.637Z,46.10
2019-03-24T16:08:55.638Z,45.60
2019-03-24T16:11:23.620Z,45.70
2019-03-24T16:13:51.615Z,45.20
2019-03-24T16:16:19.556Z,44.20
2019-03-24T16:18:47.566Z,44.40
2019-03-24T16:21:15.612Z,42.60
2019-03-24T16:23:43.564Z,41.20
2019-03-24T16:26:23.293Z,40.30
2019-03-24T16:28:51.308Z,39.80
2019-03-24T16:31:19.280Z,39.20
2019-03-24T16:33:47.298Z,38.00
2019-03-24T16:36:15.217Z,38.90
2019-03-24T16:38:48.783Z,38.10
2019-03-24T16:41:12.905Z,38.40
2019-03-24T16:43:41.040Z,37.80
2019-03-24T16:46:09.851Z,37.60
2019-03-24T16:48:37.905Z,38.30
2019-03-24T16:51:05.951Z,37.60
2019-03-24T16:53:33.971Z,38.70
2019-03-24T16:56:02.067Z,39.40
2019-03-24T16:58:30.006Z,39.60
2019-03-24T17:00:58.091Z,40.10
2019-03-24T17:03:26.016Z,40.00
2019-03-24T17:05:55.285Z,40.80
2019-03-24T17:08:35.019Z,42.20
2019-03-24T17:11:03.296Z,41.70
2019-03-24T17:13:31.320Z,42.30
2019-03-24T17:15:59.361Z,42.30
2019-03-24T17:18:27.576Z,42.60
2019-03-24T17:20:55.766Z,41.90
2019-03-24T17:23:23.714Z,41.60
2019-03-24T17:25:51.667Z,41.90
2019-03-24T17:28:19.655Z,42.70
2019-03-24T17:30:47.635Z,42.50
2019-03-24T17:33:15.721Z,42.70
2019-03-24T17:35:45.561Z,43.10
2019-03-24T17:38:13.566Z,43.30
2019-03-24T17:40:41.433Z,43.00
2019-03-24T17:43:09.683Z,42.00
2019-03-24T17:45:37.635Z,41.20
2019-03-24T17:48:05.591Z,41.50
2019-03-24T17:50:33.672Z,41.50
2019-03-24T17:53:01.922Z,42.10
2019-03-24T17:55:31.057Z,41.90
2019-03-24T17:57:59.423Z,41.70
2019-03-24T18:00:38.820Z,42.20
2019-03-24T18:03:08.226Z,41.20
2019-03-24T18:05:36.173Z,42.80
2019-03-24T18:08:04.388Z,43.40
2019-03-24T18:10:34.224Z,42.60
2019-03-24T18:13:02.194Z,43.00
2019-03-24T18:15:31.323Z,43.40
2019-03-24T18:18:00.678Z,44.20
2019-03-24T18:20:29.826Z,44.30
2019-03-24T18:22:57.839Z,44.40
2019-03-24T18:25:25.744Z,44.10
2019-03-24T18:27:53.646Z,44.70
2019-03-24T18:30:22.297Z,45.40
2019-03-24T18:32:50.188Z,44.90
2019-03-24T18:35:18.270Z,45.60
2019-03-24T18:37:46.354Z,45.30
2019-03-24T18:40:14.706Z,45.60
2019-03-24T18:42:42.632Z,46.10
2019-03-24T18:45:11.437Z,45.80
2019-03-24T18:47:39.509Z,44.60
2019-03-24T18:50:08.040Z,45.90
2019-03-24T18:52:36.060Z,46.20
2019-03-24T18:55:04.060Z,46.60
2019-03-24T18:57:33.195Z,46.90
2019-03-24T19:00:01.208Z,48.20
2019-03-24T19:02:29.466Z,48.10
2019-03-24T19:04:57.706Z,48.40
2019-03-24T19:07:25.678Z,48.40
2019-03-24T19:09:53.783Z,48.10
2019-03-24T19:12:33.403Z,47.60
2019-03-24T19:15:01.568Z,48.20
2019-03-24T19:17:29.528Z,48.50
2019-03-24T19:19:57.669Z,49.20
2019-03-24T19:22:33.239Z,49.40
2019-03-24T19:24:55.532Z,49.60
2019-03-24T19:27:23.643Z,49.70
2019-03-24T19:29:51.689Z,49.90
2019-03-24T19:32:19.614Z,49.90
2019-03-24T19:34:47.808Z,49.70
2019-03-24T19:37:15.878Z,49.60
2019-03-24T19:39:43.878Z,49.70
2019-03-24T19:42:11.908Z,50.00
2019-03-24T19:44:40.050Z,50.10
2019-03-24T19:47:10.582Z,50.10
2019-03-24T19:49:38.653Z,49.80
2019-03-24T19:52:08.170Z,50.00
2019-03-24T19:54:36.240Z,49.40
2019-03-24T19:57:04.209Z,50.20
2019-03-24T19:59:32.240Z,49.80
2019-03-24T20:02:00.384Z,49.40
2019-03-24T20:04:28.399Z,49.70
2019-03-24T20:06:56.281Z,49.60
2019-03-24T20:09:24.565Z,49.40
2019-03-24T20:11:55.410Z,49.70
2019-03-24T20:14:24.131Z,49.90
2019-03-24T20:16:52.306Z,49.60
2019-03-24T20:19:20.315Z,50.20
2019-03-24T20:21:48.461Z,50.00
2019-03-24T20:24:17.694Z,50.20
2019-03-24T20:26:46.120Z,50.00
2019-03-24T20:29:16.930Z,50.00
2019-03-24T20:31:44.954Z,50.50
2019-03-24T20:34:12.918Z,50.20
2019-03-24T20:36:40.859Z,50.10
2019-03-24T20:39:09.353Z,50.40
2019-03-24T20:41:37.481Z,50.80
2019-03-24T20:44:05.913Z,51.00
2019-03-24T20:46:39.227Z,51.20
2019-03-24T20:49:08.244Z,51.60
2019-03-24T20:51:36.253Z,51.20
2019-03-24T20:54:04.297Z,51.30
2019-03-24T20:56:32.257Z,51.80
2019-03-24T20:59:02.236Z,52.70
2019-03-24T21:01:30.168Z,52.90
2019-03-24T21:03:58.164Z,52.80
2019-03-24T21:06:26.145Z,52.90
2019-03-24T21:08:55.112Z,53.00
2019-03-24T21:11:22.996Z,52.40
2019-03-24T21:13:50.948Z,52.90
2019-03-24T21:16:18.813Z,51.80
2019-03-24T21:18:46.610Z,51.80
2019-03-24T21:21:15.499Z,51.80
2019-03-24T21:23:43.433Z,52.00
2019-03-24T21:26:11.440Z,51.90
2019-03-24T21:28:39.437Z,51.90
2019-03-24T21:31:07.450Z,52.40
2019-03-24T21:33:35.389Z,52.80
2019-03-24T21:36:03.315Z,53.40
2019-03-24T21:38:31.455Z,53.70
2019-03-24T21:40:59.445Z,54.10
2019-03-24T21:43:27.333Z,54.70
2019-03-24T21:45:55.206Z,55.10
2019-03-24T21:48:23.147Z,55.50
2019-03-24T21:50:51.060Z,55.70
2019-03-24T21:53:19.036Z,56.40
2019-03-24T21:55:46.996Z,56.90
2019-03-24T21:58:14.986Z,57.20
2019-03-24T22:00:42.832Z,57.30
2019-03-24T22:03:10.858Z,57.20
2019-03-24T22:05:38.904Z,56.70
2019-03-24T22:08:06.859Z,56.60
2019-03-24T22:10:35.948Z,55.80
2019-03-24T22:13:04.161Z,55.60
2019-03-24T22:15:32.130Z,55.50
2019-03-24T22:18:00.014Z,55.10
2019-03-24T22:20:27.894Z,54.90
2019-03-24T22:22:55.855Z,54.60
2019-03-24T22:25:23.693Z,54.60
2019-03-24T22:27:51.674Z,54.70
2019-03-24T22:30:19.612Z,54.80
2019-03-24T22:32:47.496Z,54.70
2019-03-24T22:35:15.453Z,54.40
2019-03-24T22:37:43.335Z,54.30
2019-03-24T22:40:11.155Z,54.10
2019-03-24T22:42:39.014Z,53.90
2019-03-24T22:45:07.132Z,54.00
2019-03-24T22:47:35.032Z,53.70
2019-03-24T22:50:03.154Z,53.20
2019-03-24T22:52:31.109Z,53.40
2019-03-24T22:54:59.024Z,53.90
2019-03-24T22:57:26.854Z,56.50
2019-03-24T22:59:54.691Z,57.50
2019-03-24T23:02:22.641Z,58.30
2019-03-24T23:04:50.556Z,58.50
2019-03-24T23:07:18.483Z,58.20
2019-03-24T23:09:46.440Z,58.40
2019-03-24T23:12:14.432Z,59.00
2019-03-24T23:14:42.402Z,59.00
2019-03-24T23:17:10.287Z,59.20
2019-03-24T23:19:38.285Z,59.10
2019-03-24T23:22:06.279Z,58.80
2019-03-24T23:24:34.286Z,58.90
2019-03-24T23:27:02.306Z,58.20
2019-03-24T23:29:30.203Z,58.00
2019-03-24T23:31:58.129Z,58.80
2019-03-24T23:34:27.197Z,59.70
2019-03-24T23:36:55.167Z,60.00
2019-03-24T23:39:23.094Z,61.00
2019-03-24T23:41:50.968Z,60.10
2019-03-24T23:44:19.997Z,59.40
2019-03-24T23:46:47.809Z,58.70
2019-03-24T23:49:15.633Z,58.50
2019-03-24T23:51:43.541Z,58.40
2019-03-24T23:54:11.479Z,58.70
2019-03-24T23:56:40.396Z,58.70
2019-03-24T23:59:08.350Z,58.80
